Time;durP1;ratioP1;P1;durP2;ratioP2;P2;SDS_P1;SDS_P2;PMS_P1;PMS_P2;Temp;Humidity;BMP_temperature;BMP_pressure;BME280_temperature;BME280_humidity;BME280_pressure;Samples;Min_cycle;Max_cycle;Signal;HPM_P1;HPM_P2
2021/12/18 00:00:50;;;;;;;49.60;23.85;;;-0.20;96.90;;;;;;5014796;28;20018;-76
2021/12/18 00:03:17;;;;;;;42.42;21.77;;;-0.30;96.40;;;;;;5014703;28;20018;-76
2021/12/18 00:05:43;;;;;;;43.05;22.85;;;-0.30;96.50;;;;;;5011421;28;20419;-75
2021/12/18 00:08:10;;;;;;;45.15;22.77;;;-0.40;96.70;;;;;;5009352;28;20145;-76
2021/12/18 00:10:36;;;;;;;42.55;21.80;;;-0.60;96.80;;;;;;5013149;28;20046;-76
2021/12/18 00:13:02;;;;;;;35.65;19.83;;;-0.70;96.40;;;;;;5014192;28;20096;-76
2021/12/18 00:15:29;;;;;;;39.58;21.90;;;-0.80;95.60;;;;;;5010675;28;20034;-76
2021/12/18 00:17:55;;;;;;;41.42;22.35;;;-0.70;94.90;;;;;;5012742;28;20025;-76
2021/12/18 00:20:23;;;;;;;37.40;21.67;;;-0.60;95.00;;;;;;5012882;28;20030;-76
2021/12/18 00:22:49;;;;;;;35.67;19.95;;;-0.60;95.90;;;;;;5009155;28;20034;-76
2021/12/18 00:25:15;;;;;;;40.83;21.17;;;-0.70;96.20;;;;;;5012671;28;20033;-75
2021/12/18 00:27:41;;;;;;;48.92;22.30;;;-0.80;96.70;;;;;;5013293;28;20034;-76
2021/12/18 00:30:09;;;;;;;48.10;22.45;;;-0.90;96.60;;;;;;5010814;28;20052;-76
2021/12/18 00:32:34;;;;;;;36.80;19.45;;;-1.00;96.80;;;;;;5027470;28;20026;-75
2021/12/18 00:35:00;;;;;;;42.80;22.20;;;-1.10;97.00;;;;;;5013516;28;20076;-76
2021/12/18 00:37:26;;;;;;;38.72;20.83;;;-1.20;95.80;;;;;;5010091;28;20026;-76
2021/12/18 00:39:56;;;;;;;42.53;25.38;;;-1.20;95.30;;;;;;5012594;28;20021;-75
2021/12/18 00:45:06;;;;;;;51.88;26.13;;;-1.10;95.50;;;;;;5013047;28;20022;-76
2021/12/18 00:47:32;;;;;;;70.63;29.58;;;-1.10;96.70;;;;;;5028551;28;20026;-76
2021/12/18 00:49:57;;;;;;;55.00;25.33;;;-1.20;96.40;;;;;;5013667;28;20026;-76
2021/12/18 00:52:23;;;;;;;55.50;24.60;;;-1.30;96.60;;;;;;5010486;28;20151;-75
2021/12/18 00:54:50;;;;;;;51.72;23.58;;;-1.40;96.40;;;;;;5011025;28;20025;-76
2021/12/18 00:57:16;;;;;;;45.03;21.23;;;-1.50;95.40;;;;;;5012349;28;20041;-76
2021/12/18 00:59:42;;;;;;;38.47;20.05;;;-1.40;95.20;;;;;;5013160;28;20025;-76
2021/12/18 01:02:08;;;;;;;63.40;26.00;;;-1.40;95.10;;;;;;5010849;28;20333;-75
2021/12/18 01:04:33;;;;;;;51.72;23.73;;;-1.40;94.30;;;;;;5013635;28;20030;-76
2021/12/18 01:06:59;;;;;;;42.03;20.80;;;-1.40;94.90;;;;;;5010613;28;20033;-76
2021/12/18 01:09:44;;;;;;;47.00;21.88;;;-1.50;95.20;;;;;;5013612;28;20038;-75
2021/12/18 01:12:10;;;;;;;41.55;21.02;;;-1.60;94.90;;;;;;5013143;28;20041;-76
2021/12/18 01:25:05;;;;;;;59.13;24.58;;;-1.60;94.20;;;;;;5012198;28;20100;-75
2021/12/18 01:27:31;;;;;;;61.58;22.67;;;-1.60;93.70;;;;;;5011010;28;20419;-76
2021/12/18 01:29:57;;;;;;;45.90;21.73;;;-1.70;94.30;;;;;;5013221;28;20129;-76
2021/12/18 01:32:24;;;;;;;41.97;21.73;;;-1.70;93.80;;;;;;5012162;28;20117;-76
2021/12/18 01:34:50;;;;;;;47.45;23.13;;;-1.80;93.90;;;;;;5014605;28;20494;-75
2021/12/18 01:37:16;;;;;;;42.15;20.90;;;-1.80;92.30;;;;;;5016170;28;20101;-75
2021/12/18 01:39:42;;;;;;;42.63;21.60;;;-1.70;93.40;;;;;;5016713;28;20411;-74
2021/12/18 01:45:13;;;;;;;45.92;24.05;;;-1.60;91.60;;;;;;5016644;28;20022;-75
2021/12/18 01:53:10;;;;;;;;;;;-1.60;93.80;;;;;;5014242;28;20076;-76
2021/12/18 01:55:37;;;;;;;53.05;22.33;;;-1.80;94.30;;;;;;5016004;28;19917;-75
2021/12/18 01:58:05;;;;;;;40.75;20.38;;;-1.90;93.80;;;;;;5015216;28;20119;-76
2021/12/18 02:00:39;;;;;;;46.35;22.73;;;-1.90;93.10;;;;;;5015632;28;20022;-76
2021/12/18 02:03:05;;;;;;;;;;;-1.90;93.00;;;;;;5015866;28;20095;-76
2021/12/18 02:05:31;;;;;;;42.50;21.63;;;-1.90;93.40;;;;;;5016180;28;19992;-76
2021/12/18 02:07:57;;;;;;;44.88;21.30;;;-1.90;93.60;;;;;;5013957;28;20030;-76
2021/12/18 02:10:27;;;;;;;57.33;25.50;;;-1.90;93.40;;;;;;5015657;28;20362;-76
2021/12/18 02:20:54;;;;;;;41.05;21.48;;;-2.10;93.10;;;;;;5012207;28;20049;-76
2021/12/18 02:23:19;;;;;;;44.40;23.08;;;-2.00;91.90;;;;;;5014681;28;20427;-75
2021/12/18 02:25:46;;;;;;;42.17;21.98;;;-1.90;91.30;;;;;;5013846;28;20437;-76
2021/12/18 02:28:24;;;;;;;55.15;23.80;;;-1.80;91.00;;;;;;5015392;28;20072;-76
2021/12/18 02:30:53;;;;;;;39.20;21.10;;;-1.80;93.00;;;;;;5014295;28;20029;-75
2021/12/18 02:33:21;;;;;;;43.65;21.45;;;-2.00;93.40;;;;;;5015141;28;20115;-75
2021/12/18 02:35:49;;;;;;;41.97;22.13;;;-2.10;94.00;;;;;;5015024;28;20026;-76
2021/12/18 02:38:24;;;;;;;55.10;23.25;;;-2.20;94.00;;;;;;5014646;28;20037;-75
2021/12/18 02:41:13;;;;;;;63.50;24.35;;;-2.30;94.20;;;;;;5030222;28;20030;-75
2021/12/18 02:43:41;;;;;;;50.75;22.63;;;-2.40;94.10;;;;;;5010419;28;20125;-76
2021/12/18 02:46:08;;;;;;;39.13;21.65;;;-2.60;93.90;;;;;;5015291;28;20063;-75
2021/12/18 02:48:39;;;;;;;40.30;20.73;;;-2.50;92.30;;;;;;5017791;28;20049;-75
2021/12/18 02:51:07;;;;;;;48.38;21.40;;;-2.40;91.90;;;;;;5017373;28;20318;-75
2021/12/18 02:53:34;;;;;;;62.42;24.05;;;-2.40;92.80;;;;;;5016550;28;20026;-76
2021/12/18 02:56:04;;;;;;;56.47;24.17;;;-2.50;93.60;;;;;;5018097;28;20021;-75
2021/12/18 02:58:34;;;;;;;57.15;25.00;;;-2.60;93.90;;;;;;5018208;28;20089;-75
2021/12/18 03:01:00;;;;;;;48.13;22.30;;;-2.40;91.60;;;;;;5017248;28;20060;-76
2021/12/18 03:03:35;;;;;;;46.72;22.25;;;-2.30;92.00;;;;;;5008539;28;20033;-76
2021/12/18 03:08:45;;;;;;;49.47;22.50;;;-2.30;92.80;;;;;;5015897;28;20052;-75
2021/12/18 03:25:02;;;;;;;63.58;25.40;;;-2.40;92.90;;;;;;5015819;28;20028;-75
2021/12/18 03:27:29;;;;;;;52.50;23.70;;;-2.40;91.70;;;;;;5015628;28;20025;-75
2021/12/18 03:29:55;;;;;;;59.95;24.85;;;-2.50;92.20;;;;;;5014403;28;20046;-76
2021/12/18 03:32:22;;;;;;;43.95;21.55;;;-2.40;92.00;;;;;;5016768;28;20018;-76
2021/12/18 03:34:49;;;;;;;54.45;24.85;;;-2.50;91.50;;;;;;5016104;28;20057;-76
2021/12/18 03:37:15;;;;;;;74.28;27.15;;;-2.30;90.80;;;;;;5013464;28;20025;-76
2021/12/18 03:39:41;;;;;;;50.17;22.73;;;-2.40;92.40;;;;;;5015161;28;20068;-76
2021/12/18 03:42:07;;;;;;;58.78;23.38;;;-2.40;92.20;;;;;;5015693;28;20025;-76
2021/12/18 03:44:34;;;;;;;48.75;21.95;;;-2.50;93.10;;;;;;5014858;28;20025;-76
2021/12/18 03:47:00;;;;;;;55.90;24.42;;;-2.50;91.30;;;;;;5013991;28;20397;-76
2021/12/18 03:49:26;;;;;;;68.03;26.75;;;-2.50;91.60;;;;;;5016118;28;20036;-76
2021/12/18 03:51:51;;;;;;;45.22;20.77;;;-2.50;92.00;;;;;;5012680;28;20037;-76
2021/12/18 03:54:17;;;;;;;61.80;25.67;;;-2.40;91.30;;;;;;5014953;28;20033;-77
2021/12/18 03:56:43;;;;;;;46.63;22.10;;;-2.40;91.60;;;;;;5011683;28;20033;-76
2021/12/18 03:59:09;;;;;;;44.85;21.88;;;-2.40;92.00;;;;;;5015545;28;20026;-76
2021/12/18 04:01:35;;;;;;;66.22;24.38;;;-2.30;90.20;;;;;;5012368;28;20406;-76
2021/12/18 04:04:01;;;;;;;45.88;20.83;;;-2.30;91.80;;;;;;5014284;28;20037;-76
2021/12/18 04:06:27;;;;;;;74.90;24.90;;;-2.30;92.00;;;;;;5016930;28;20030;-76
2021/12/18 04:08:52;;;;;;;60.80;25.52;;;-2.30;92.10;;;;;;5013926;28;20053;-76
2021/12/18 04:11:20;;;;;;;41.92;21.08;;;-2.40;92.10;;;;;;5015447;28;20429;-76
2021/12/18 04:13:46;;;;;;;44.72;20.83;;;-2.40;92.30;;;;;;5014871;28;20072;-75
2021/12/18 04:16:14;;;;;;;56.72;24.55;;;-2.30;91.00;;;;;;5014398;28;20026;-76
2021/12/18 04:18:40;;;;;;;49.50;21.10;;;-2.30;91.40;;;;;;5015309;28;20296;-76
2021/12/18 04:21:06;;;;;;;49.63;22.35;;;-2.30;92.10;;;;;;5015537;28;20048;-76
2021/12/18 04:23:32;;;;;;;45.05;20.73;;;-2.40;92.90;;;;;;5012175;28;20030;-76
2021/12/18 04:25:58;;;;;;;51.30;22.30;;;-2.40;91.80;;;;;;5014588;28;21929;-76
2021/12/18 04:28:24;;;;;;;58.05;24.30;;;-2.30;91.20;;;;;;5014459;28;20374;-76
2021/12/18 04:30:50;;;;;;;65.05;24.38;;;-2.40;93.20;;;;;;5014131;28;20030;-76
2021/12/18 04:33:16;;;;;;;45.75;21.45;;;-2.50;93.70;;;;;;5014971;28;20083;-76
2021/12/18 04:35:42;;;;;;;41.83;20.40;;;-2.60;93.10;;;;;;5016003;28;20025;-76
2021/12/18 04:38:09;;;;;;;46.45;22.17;;;-2.50;91.10;;;;;;5009807;28;20033;-76
2021/12/18 04:40:35;;;;;;;48.25;21.70;;;-2.40;91.10;;;;;;5012604;28;20438;-76
2021/12/18 04:43:02;;;;;;;62.67;23.90;;;-2.20;90.80;;;;;;5013027;28;20030;-76
2021/12/18 04:45:29;;;;;;;59.75;22.92;;;-2.20;92.60;;;;;;5013729;28;20052;-76
2021/12/18 04:47:55;;;;;;;53.20;23.40;;;-2.30;93.90;;;;;;5013936;28;20022;-76
2021/12/18 04:50:22;;;;;;;47.60;22.35;;;-2.50;93.90;;;;;;5010864;28;21708;-75
2021/12/18 04:52:47;;;;;;;39.05;20.50;;;-2.60;93.10;;;;;;5011650;28;20453;-76
2021/12/18 04:55:13;;;;;;;48.15;22.17;;;-2.50;91.80;;;;;;5013020;28;20026;-76
2021/12/18 04:57:39;;;;;;;65.80;23.95;;;-2.30;91.40;;;;;;5014452;28;20030;-76
2021/12/18 05:00:07;;;;;;;71.25;25.15;;;-2.20;92.10;;;;;;5028479;28;20028;-76
2021/12/18 05:02:37;;;;;;;67.32;24.10;;;-2.30;93.00;;;;;;5014372;28;20338;-76
2021/12/18 05:05:05;;;;;;;42.63;20.42;;;-2.30;92.70;;;;;;5014353;28;20326;-75
2021/12/18 05:07:31;;;;;;;52.03;23.10;;;-2.20;92.40;;;;;;5012318;28;20029;-76
2021/12/18 05:09:56;;;;;;;57.55;22.50;;;-2.20;92.20;;;;;;5015535;28;20259;-76
2021/12/18 05:12:22;;;;;;;52.13;22.75;;;-2.10;92.20;;;;;;5017139;28;20026;-75
2021/12/18 05:14:48;;;;;;;62.00;24.83;;;-2.00;91.90;;;;;;5017742;28;20029;-76
2021/12/18 05:17:14;;;;;;;73.82;25.30;;;-2.00;91.40;;;;;;5017709;28;20022;-76
2021/12/18 05:19:39;;;;;;;56.42;23.27;;;-1.80;90.70;;;;;;5018443;28;20014;-75
2021/12/18 05:22:05;;;;;;;61.95;23.52;;;-1.70;90.90;;;;;;5014749;28;20026;-76
2021/12/18 05:24:31;;;;;;;62.05;23.83;;;-1.60;91.10;;;;;;5017559;28;20054;-75
2021/12/18 05:26:58;;;;;;;51.08;22.73;;;-1.60;91.20;;;;;;5017276;28;20044;-76
2021/12/18 05:29:23;;;;;;;48.90;22.35;;;-1.50;90.60;;;;;;5016888;28;20057;-75
2021/12/18 05:31:49;;;;;;;56.10;23.90;;;-1.30;89.80;;;;;;5018122;28;20026;-76
2021/12/18 05:34:21;;;;;;;53.50;23.85;;;-1.30;90.30;;;;;;5018002;28;20076;-75
2021/12/18 05:39:25;;;;;;;53.03;23.40;;;-1.10;90.40;;;;;;5016457;28;20018;-75
2021/12/18 05:41:52;;;;;;;60.38;24.48;;;-1.00;89.70;;;;;;5017191;28;20037;-74
2021/12/18 05:44:19;;;;;;;61.50;22.92;;;-0.90;89.10;;;;;;5015706;28;20030;-74
2021/12/18 05:46:46;;;;;;;85.60;29.10;;;-0.70;88.60;;;;;;5017274;28;20441;-76
2021/12/18 05:49:13;;;;;;;89.93;26.92;;;-0.70;90.10;;;;;;5016285;28;20026;-77
2021/12/18 05:51:39;;;;;;;50.33;21.88;;;-0.70;90.60;;;;;;5015582;28;20037;-75
2021/12/18 05:54:05;;;;;;;56.47;23.52;;;-0.80;90.60;;;;;;5016732;28;20027;-75
2021/12/18 05:56:32;;;;;;;55.20;22.35;;;-0.80;90.70;;;;;;5016608;28;20093;-75
2021/12/18 05:58:58;;;;;;;61.50;24.02;;;-0.80;90.70;;;;;;5016276;28;20028;-76
2021/12/18 06:01:25;;;;;;;94.82;27.52;;;-0.80;90.40;;;;;;5017012;28;20425;-76
2021/12/18 06:03:51;;;;;;;90.45;27.83;;;-0.80;89.50;;;;;;5016850;28;20030;-77
2021/12/18 06:06:17;;;;;;;101.47;29.08;;;-0.70;90.00;;;;;;5016821;28;20040;-75
2021/12/18 06:08:43;;;;;;;120.88;30.20;;;-0.70;90.20;;;;;;5014831;28;20025;-76
2021/12/18 06:11:20;;;;;;;87.45;27.70;;;-0.70;90.40;;;;;;5014709;28;20036;-76
2021/12/18 06:13:51;;;;;;;88.75;26.35;;;-0.70;90.00;;;;;;5015140;28;20180;-75
2021/12/18 06:16:20;;;;;;;72.45;24.77;;;-0.70;90.00;;;;;;5015182;28;20025;-76
2021/12/18 06:18:50;;;;;;;86.22;25.75;;;-0.70;90.40;;;;;;5016201;28;20580;-75
2021/12/18 06:21:18;;;;;;;69.75;26.50;;;-0.70;89.80;;;;;;5014409;28;20430;-76
2021/12/18 06:23:47;;;;;;;94.35;28.08;;;-0.60;89.80;;;;;;5015052;28;20136;-76
2021/12/18 06:26:13;;;;;;;67.43;24.00;;;-0.70;89.80;;;;;;5013780;28;20152;-77
2021/12/18 06:28:39;;;;;;;76.53;27.23;;;-0.70;89.60;;;;;;5030036;28;20060;-74
2021/12/18 06:31:05;;;;;;;90.25;27.20;;;-0.70;89.40;;;;;;5016221;28;20032;-74
2021/12/18 06:33:31;;;;;;;90.38;27.27;;;-0.60;89.30;;;;;;5017672;28;20589;-76
2021/12/18 06:35:57;;;;;;;79.82;26.63;;;-0.60;89.50;;;;;;5015561;28;20026;-75
2021/12/18 06:38:23;;;;;;;95.32;27.45;;;-0.60;89.10;;;;;;5013770;28;20029;-76
2021/12/18 06:40:49;;;;;;;74.20;27.38;;;-0.60;89.40;;;;;;5016327;28;20018;-76
2021/12/18 06:43:15;;;;;;;80.65;26.77;;;-0.60;89.30;;;;;;5017732;28;20084;-75
2021/12/18 06:45:41;;;;;;;91.85;26.17;;;-0.70;89.60;;;;;;5016532;28;20029;-75
2021/12/18 06:48:07;;;;;;;69.15;24.40;;;-0.70;89.70;;;;;;5016231;28;20041;-76
2021/12/18 06:50:34;;;;;;;116.70;29.20;;;-0.70;89.60;;;;;;5015286;28;20121;-75
2021/12/18 06:53:00;;;;;;;93.60;28.95;;;-0.70;89.60;;;;;;5016534;28;20052;-75
2021/12/18 06:55:26;;;;;;;55.15;22.13;;;-0.70;89.50;;;;;;5016110;28;20029;-76
2021/12/18 06:57:52;;;;;;;74.47;25.23;;;-0.60;88.90;;;;;;5014204;28;20033;-75
2021/12/18 07:00:19;;;;;;;55.88;26.15;;;-0.60;88.30;;;;;;5015450;28;20029;-76
2021/12/18 07:02:45;;;;;;;56.78;28.02;;;-0.40;87.50;;;;;;5016749;28;20034;-75
2021/12/18 07:05:11;;;;;;;57.00;26.98;;;-0.30;88.10;;;;;;5015892;28;20025;-76
2021/12/18 07:07:38;;;;;;;60.55;25.77;;;-0.20;87.40;;;;;;5013084;28;20037;-75
2021/12/18 07:10:05;;;;;;;49.42;21.13;;;-0.10;87.70;;;;;;5012424;28;20025;-76
2021/12/18 07:12:31;;;;;;;66.82;24.33;;;-0.20;88.40;;;;;;5013374;28;20029;-75
2021/12/18 07:14:56;;;;;;;66.60;24.58;;;-0.20;88.60;;;;;;5013464;28;20308;-75
2021/12/18 07:17:22;;;;;;;63.47;24.67;;;-0.20;88.70;;;;;;5014386;28;20354;-75
2021/12/18 07:19:48;;;;;;;41.92;20.05;;;-0.20;89.00;;;;;;5015279;28;20325;-74
2021/12/18 07:22:16;;;;;;;44.38;19.20;;;-0.20;89.10;;;;;;5012578;28;20121;-76
2021/12/18 07:24:42;;;;;;;36.33;16.92;;;-0.10;88.30;;;;;;5014060;28;20034;-75
2021/12/18 07:27:08;;;;;;;35.58;16.70;;;-0.10;88.60;;;;;;5013892;28;20030;-76
2021/12/18 07:29:33;;;;;;;37.05;16.63;;;0.00;88.60;;;;;;5012744;28;20121;-76
2021/12/18 07:31:59;;;;;;;35.15;16.92;;;0.00;89.10;;;;;;5011971;28;20145;-75
2021/12/18 07:34:25;;;;;;;39.95;17.48;;;0.00;89.00;;;;;;5014188;28;20128;-76
2021/12/18 07:36:51;;;;;;;35.88;16.35;;;0.10;89.60;;;;;;5012854;28;20125;-76
2021/12/18 07:39:16;;;;;;;70.45;22.67;;;0.10;89.30;;;;;;5015166;28;20104;-76
2021/12/18 07:41:42;;;;;;;47.72;21.08;;;0.10;91.10;;;;;;5016205;28;20033;-76
2021/12/18 07:44:08;;;;;;;56.08;21.73;;;0.00;91.30;;;;;;5013833;28;20048;-76
2021/12/18 07:46:38;;;;;;;49.63;22.10;;;0.00;90.30;;;;;;5015178;28;20113;-76
2021/12/18 07:49:05;;;;;;;50.00;22.38;;;0.10;89.40;;;;;;5013474;28;20026;-76
2021/12/18 07:51:32;;;;;;;62.45;23.98;;;0.20;89.90;;;;;;5013700;28;20046;-76
2021/12/18 07:53:58;;;;;;;67.25;26.48;;;0.20;90.70;;;;;;5016948;28;20481;-75
2021/12/18 07:56:24;;;;;;;48.85;23.55;;;0.20;91.00;;;;;;5013922;28;20034;-75
2021/12/18 07:58:51;;;;;;;77.28;31.45;;;0.10;91.70;;;;;;5011168;28;20030;-76
2021/12/18 08:01:17;;;;;;;73.53;25.42;;;0.10;91.20;;;;;;5016408;28;20029;-75
2021/12/18 08:03:42;;;;;;;63.58;26.50;;;0.10;91.70;;;;;;5016849;28;20030;-75
2021/12/18 08:06:08;;;;;;;79.13;28.55;;;0.10;91.30;;;;;;5016963;28;20025;-75
2021/12/18 08:08:34;;;;;;;58.17;26.38;;;0.10;91.70;;;;;;5015162;28;20091;-76
2021/12/18 08:11:00;;;;;;;44.58;20.40;;;0.10;91.30;;;;;;5013713;28;20415;-75
2021/12/18 08:13:26;;;;;;;80.07;28.23;;;0.20;90.50;;;;;;5011270;28;20026;-76
2021/12/18 08:15:51;;;;;;;57.72;26.35;;;0.30;91.20;;;;;;5014700;28;20026;-75
2021/12/18 08:18:17;;;;;;;54.78;23.23;;;0.20;91.70;;;;;;5016134;28;20030;-76
2021/12/18 08:20:43;;;;;;;52.67;23.92;;;0.30;91.40;;;;;;5015269;28;20037;-75
2021/12/18 08:23:08;;;;;;;65.47;24.83;;;0.30;92.10;;;;;;5013200;28;20026;-75
2021/12/18 08:25:34;;;;;;;58.95;24.95;;;0.30;92.60;;;;;;5016707;28;20025;-75
2021/12/18 08:28:04;;;;;;;56.00;23.58;;;0.20;92.30;;;;;;5009201;28;20026;-75
2021/12/18 08:30:35;;;;;;;57.78;23.90;;;0.20;92.20;;;;;;5014548;28;20042;-74
2021/12/18 08:33:00;;;;;;;48.00;23.23;;;0.20;92.40;;;;;;5013540;28;20037;-75
2021/12/18 08:35:28;;;;;;;45.20;20.45;;;0.30;92.10;;;;;;5014781;28;20034;-74
2021/12/18 08:37:55;;;;;;;46.38;23.23;;;0.40;92.20;;;;;;5013698;28;20076;-74
2021/12/18 08:40:25;;;;;;;51.72;22.65;;;0.40;93.20;;;;;;5014537;28;20026;-74
2021/12/18 08:42:52;;;;;;;46.67;21.20;;;0.50;92.80;;;;;;5008505;28;20026;-76
2021/12/18 08:45:18;;;;;;;42.65;19.27;;;0.40;93.10;;;;;;5009844;28;20052;-76
2021/12/18 08:47:44;;;;;;;44.83;19.98;;;0.50;92.70;;;;;;5014289;28;20411;-77
2021/12/18 08:50:13;;;;;;;38.25;18.48;;;0.50;93.50;;;;;;5015873;28;20049;-75
2021/12/18 08:52:40;;;;;;;39.55;19.42;;;0.50;93.50;;;;;;5014328;28;20018;-77
2021/12/18 08:55:06;;;;;;;36.10;17.23;;;0.50;93.70;;;;;;5014740;28;20089;-76
2021/12/18 08:57:32;;;;;;;32.45;16.58;;;0.50;93.50;;;;;;5016070;28;20398;-76
2021/12/18 08:59:58;;;;;;;25.75;14.27;;;0.60;95.00;;;;;;5014066;28;20046;-75
2021/12/18 09:02:24;;;;;;;28.65;14.45;;;0.60;95.10;;;;;;5013393;28;20025;-75
2021/12/18 09:04:50;;;;;;;27.05;15.32;;;0.80;95.20;;;;;;5016114;28;20022;-76
2021/12/18 09:07:16;;;;;;;26.02;13.80;;;0.80;96.90;;;;;;5013873;28;20071;-76
2021/12/18 09:09:41;;;;;;;26.35;14.90;;;0.70;97.20;;;;;;5015113;28;20101;-75
2021/12/18 09:12:09;;;;;;;27.80;13.70;;;0.90;96.70;;;;;;5014281;28;20123;-75
2021/12/18 09:14:35;;;;;;;25.45;14.63;;;1.00;97.60;;;;;;5014359;28;20053;-75
2021/12/18 09:17:01;;;;;;;25.77;14.57;;;0.90;98.00;;;;;;5015182;28;20064;-76
2021/12/18 09:19:27;;;;;;;23.50;13.25;;;1.00;98.00;;;;;;5015165;28;20418;-77
2021/12/18 09:21:53;;;;;;;23.77;13.20;;;1.00;98.00;;;;;;5012882;28;20018;-76
2021/12/18 09:24:20;;;;;;;23.77;13.77;;;1.10;98.00;;;;;;5012410;28;20025;-76
2021/12/18 09:26:46;;;;;;;23.10;13.27;;;1.10;98.00;;;;;;5014659;28;20029;-75
2021/12/18 09:29:12;;;;;;;28.27;14.52;;;1.20;98.00;;;;;;5015252;28;20042;-77
2021/12/18 09:31:38;;;;;;;23.10;13.00;;;1.20;98.00;;;;;;5010731;28;20037;-74
2021/12/18 09:34:05;;;;;;;21.33;12.25;;;1.40;98.00;;;;;;5013789;28;20042;-74
2021/12/18 09:36:31;;;;;;;22.67;13.00;;;1.50;98.00;;;;;;5013496;28;20026;-75
2021/12/18 09:38:57;;;;;;;19.83;11.38;;;1.40;98.00;;;;;;5010518;28;20026;-74
2021/12/18 09:41:24;;;;;;;20.13;10.80;;;1.50;98.00;;;;;;5012814;28;20018;-75
2021/12/18 09:43:50;;;;;;;21.17;12.02;;;1.70;98.00;;;;;;5012698;28;20092;-75
2021/12/18 09:46:16;;;;;;;20.45;11.75;;;1.80;98.00;;;;;;5013196;28;20382;-76
2021/12/18 09:48:43;;;;;;;18.52;10.85;;;1.80;98.00;;;;;;5013395;28;20419;-76
2021/12/18 09:51:20;;;;;;;17.23;10.25;;;2.00;98.00;;;;;;5014195;28;20034;-76
2021/12/18 09:53:46;;;;;;;19.13;11.10;;;2.00;98.00;;;;;;5008908;28;20054;-76
2021/12/18 09:56:12;;;;;;;15.95;9.77;;;1.90;98.00;;;;;;5016482;28;20437;-73
2021/12/18 09:58:38;;;;;;;18.10;10.52;;;1.70;98.00;;;;;;5018452;28;20035;-77
2021/12/18 10:01:03;;;;;;;17.73;10.57;;;1.90;98.00;;;;;;5019109;28;20025;-75
2021/12/18 10:04:02;;;;;;;19.85;11.00;;;1.90;98.00;;;;;;5017405;28;20045;-73
2021/12/18 10:06:36;;;;;;;19.65;11.45;;;1.90;98.00;;;;;;4996627;28;20038;-76
2021/12/18 10:09:12;;;;;;;20.40;12.27;;;1.90;98.00;;;;;;5013128;28;20104;-75
2021/12/18 10:11:56;;;;;;;21.38;12.50;;;1.90;98.00;;;;;;5016743;28;20038;-75
2021/12/18 10:14:36;;;;;;;20.33;11.68;;;1.90;98.00;;;;;;5011407;28;20030;-75
2021/12/18 10:17:03;;;;;;;19.02;11.32;;;1.90;98.00;;;;;;5007692;28;20411;-76
2021/12/18 10:19:35;;;;;;;18.25;11.25;;;1.90;98.00;;;;;;5016876;28;20038;-76
2021/12/18 10:22:03;;;;;;;28.75;16.42;;;2.10;98.00;;;;;;5003501;28;20389;-75
2021/12/18 10:24:31;;;;;;;21.75;12.55;;;2.30;98.00;;;;;;5015418;28;20125;-76
2021/12/18 10:26:57;;;;;;;21.20;12.38;;;2.20;98.00;;;;;;5016370;28;20029;-75
2021/12/18 10:29:35;;;;;;;19.10;11.25;;;2.30;98.00;;;;;;5016774;28;20042;-76
2021/12/18 10:32:07;;;;;;;17.05;10.32;;;3.20;98.00;;;;;;5009543;28;20033;-75
2021/12/18 10:34:36;;;;;;;15.45;9.50;;;4.80;98.00;;;;;;5007032;28;20026;-75
2021/12/18 10:37:19;;;;;;;15.52;9.43;;;6.00;93.60;;;;;;5013914;28;20049;-75
2021/12/18 10:39:50;;;;;;;16.10;10.15;;;6.70;89.40;;;;;;5013754;28;20045;-75
2021/12/18 10:42:35;;;;;;;16.88;10.45;;;6.60;89.80;;;;;;5016825;28;20446;-75
2021/12/18 10:45:15;;;;;;;16.23;10.57;;;7.10;88.60;;;;;;5016919;28;20025;-75
2021/12/18 10:48:03;;;;;;;14.75;9.70;;;7.90;85.80;;;;;;5014601;28;20033;-76
2021/12/18 10:50:50;;;;;;;15.27;10.07;;;8.50;82.80;;;;;;5016261;28;20018;-74
2021/12/18 10:53:17;;;;;;;16.70;10.82;;;9.00;81.10;;;;;;5021212;28;20034;-76
2021/12/18 10:55:47;;;;;;;18.15;11.70;;;9.20;80.60;;;;;;5021634;28;20026;-77
2021/12/18 10:58:49;;;;;;;17.08;10.80;;;8.90;80.60;;;;;;5017203;28;20106;-76
2021/12/18 11:01:15;;;;;;;17.45;10.48;;;8.90;80.40;;;;;;4994769;28;20034;-76
2021/12/18 11:03:46;;;;;;;18.30;11.70;;;8.70;81.70;;;;;;5010552;28;20540;-75
2021/12/18 11:06:25;;;;;;;20.67;13.18;;;8.20;82.60;;;;;;5007458;28;20030;-76
2021/12/18 11:08:58;;;;;;;22.45;14.27;;;6.80;84.50;;;;;;5030466;28;20389;-76
2021/12/18 11:14:01;;;;;;;23.08;14.15;;;4.80;91.70;;;;;;5017283;28;20362;-75
2021/12/18 11:16:28;;;;;;;20.98;12.48;;;4.20;94.30;;;;;;5014843;28;20030;-76
2021/12/18 11:18:55;;;;;;;20.58;12.48;;;3.90;95.80;;;;;;5016774;28;20026;-76
2021/12/18 11:21:25;;;;;;;24.95;14.48;;;4.10;96.10;;;;;;5007620;28;20026;-75
2021/12/18 11:23:55;;;;;;;24.27;13.90;;;4.30;95.40;;;;;;5016377;28;20029;-76
2021/12/18 11:26:23;;;;;;;22.85;14.02;;;4.30;95.50;;;;;;5015239;28;20410;-74
2021/12/18 11:28:51;;;;;;;26.20;15.40;;;4.30;95.30;;;;;;5014237;28;20689;-74
2021/12/18 11:31:18;;;;;;;28.55;16.08;;;4.30;95.00;;;;;;5016549;28;20439;-74
2021/12/18 11:33:44;;;;;;;35.08;18.25;;;3.90;95.60;;;;;;5021515;28;20315;-75
2021/12/18 11:36:11;;;;;;;38.03;21.38;;;3.30;97.00;;;;;;5015058;28;20104;-76
2021/12/18 11:38:41;;;;;;;32.45;19.02;;;3.00;98.00;;;;;;5011165;28;20022;-77
2021/12/18 11:41:12;;;;;;;27.60;16.88;;;2.90;98.00;;;;;;5016663;28;20413;-76
2021/12/18 11:43:41;;;;;;;31.60;17.52;;;2.90;98.00;;;;;;5016292;28;20136;-76
2021/12/18 11:46:33;;;;;;;27.30;15.38;;;2.80;98.00;;;;;;5014108;28;20038;-76
2021/12/18 11:49:06;;;;;;;33.20;17.85;;;2.50;98.00;;;;;;5012095;28;20026;-76
2021/12/18 11:51:33;;;;;;;32.38;17.65;;;2.30;98.00;;;;;;5012205;28;20091;-79
2021/12/18 11:54:03;;;;;;;30.00;17.25;;;2.30;98.00;;;;;;5014520;28;20032;-77
2021/12/18 11:56:45;;;;;;;28.50;17.33;;;2.20;98.00;;;;;;5006822;28;20014;-75
2021/12/18 11:59:11;;;;;;;31.27;17.65;;;2.30;98.00;;;;;;5012489;28;20100;-75
2021/12/18 12:01:44;;;;;;;28.08;16.38;;;2.40;98.00;;;;;;5015028;28;20061;-78
2021/12/18 12:04:10;;;;;;;29.40;15.93;;;2.60;98.00;;;;;;5015176;28;20029;-75
2021/12/18 12:06:41;;;;;;;26.15;15.30;;;2.80;98.00;;;;;;5013645;28;20034;-76
2021/12/18 12:09:36;;;;;;;21.73;13.63;;;3.20;98.00;;;;;;5009111;28;20034;-76
2021/12/18 12:12:15;;;;;;;24.13;14.05;;;4.00;98.00;;;;;;5015887;28;20036;-77
2021/12/18 12:14:42;;;;;;;23.67;13.57;;;4.40;96.60;;;;;;5014113;28;20108;-76
2021/12/18 12:17:16;;;;;;;25.00;15.25;;;4.80;95.60;;;;;;5020013;28;20026;-75
2021/12/18 12:19:51;;;;;;;24.48;14.75;;;4.70;94.90;;;;;;5011318;28;20113;-75
2021/12/18 12:22:37;;;;;;;24.52;14.30;;;4.30;95.30;;;;;;5012835;28;20038;-76
2021/12/18 12:25:05;;;;;;;21.85;13.30;;;4.50;95.90;;;;;;5012937;28;20083;-76
2021/12/18 12:27:59;;;;;;;25.50;13.23;;;4.90;95.20;;;;;;5008528;28;20045;-75
2021/12/18 12:30:27;;;;;;;28.13;15.32;;;5.20;93.60;;;;;;4999406;28;20057;-76
2021/12/18 12:32:58;;;;;;;25.92;15.57;;;5.00;93.30;;;;;;4996959;28;20419;-76
2021/12/18 12:35:24;;;;;;;26.77;15.70;;;4.30;94.90;;;;;;4996604;28;20089;-76
2021/12/18 12:37:50;;;;;;;29.38;16.55;;;3.80;96.70;;;;;;4995539;28;20022;-75
2021/12/18 12:40:31;;;;;;;27.02;15.77;;;3.40;98.00;;;;;;5011821;28;20033;-75
2021/12/18 12:43:17;;;;;;;29.98;17.10;;;3.30;98.00;;;;;;5006450;28;20022;-76
2021/12/18 12:45:46;;;;;;;28.15;15.70;;;3.70;98.00;;;;;;5012701;28;20025;-77
2021/12/18 12:48:12;;;;;;;27.20;16.42;;;4.20;97.90;;;;;;5013197;28;20033;-76
2021/12/18 12:50:38;;;;;;;27.58;14.77;;;4.70;96.40;;;;;;5010365;28;20015;-75
2021/12/18 12:53:09;;;;;;;26.73;15.02;;;4.70;94.70;;;;;;4995992;28;20355;-75
2021/12/18 12:55:44;;;;;;;27.63;16.38;;;4.70;94.90;;;;;;5013005;28;20292;-76
2021/12/18 12:58:26;;;;;;;25.02;14.23;;;4.90;94.80;;;;;;5010425;28;20022;-76
2021/12/18 13:00:54;;;;;;;27.85;14.65;;;4.60;94.50;;;;;;5011104;28;20077;-78
2021/12/18 13:03:24;;;;;;;21.95;13.10;;;4.50;95.50;;;;;;5012954;28;20025;-76
2021/12/18 13:05:52;;;;;;;27.75;15.88;;;4.80;95.70;;;;;;5011830;28;20025;-76
2021/12/18 13:08:18;;;;;;;26.17;15.90;;;4.80;94.50;;;;;;5009962;28;20129;-75
2021/12/18 13:10:47;;;;;;;25.83;15.32;;;4.60;95.00;;;;;;5014771;28;20072;-76
2021/12/18 13:13:17;;;;;;;27.60;15.38;;;4.40;95.50;;;;;;5015440;28;20026;-79
2021/12/18 13:15:56;;;;;;;28.90;16.65;;;4.40;96.30;;;;;;5008160;28;20113;-76
2021/12/18 13:18:28;;;;;;;27.83;15.70;;;4.50;95.80;;;;;;5013559;28;20441;-76
2021/12/18 13:21:20;;;;;;;28.73;16.13;;;4.50;95.50;;;;;;5016162;28;20327;-75
2021/12/18 13:24:02;;;;;;;30.48;16.95;;;4.40;95.20;;;;;;5012055;28;20070;-76
2021/12/18 13:26:32;;;;;;;31.95;15.85;;;4.10;96.40;;;;;;5014871;28;20041;-76
2021/12/18 13:29:01;;;;;;;25.25;14.43;;;4.00;96.40;;;;;;5015513;28;20050;-75
2021/12/18 13:31:33;;;;;;;27.05;15.15;;;4.10;96.60;;;;;;5018211;28;20038;-76